createdAt,value
2019-01-12T00:00:29.774Z,22.42
2019-01-12T00:02:58.703Z,22.42
2019-01-12T00:05:27.833Z,22.41
2019-01-12T00:07:55.801Z,22.37
2019-01-12T00:10:24.789Z,22.45
2019-01-12T00:12:52.831Z,22.45
2019-01-12T00:15:21.791Z,22.45
2019-01-12T00:17:49.985Z,22.41
2019-01-12T00:20:18.866Z,22.43
2019-01-12T00:22:47.843Z,22.43
2019-01-12T00:27:58.450Z,22.48
2019-01-12T00:30:26.397Z,22.39
2019-01-12T00:32:54.899Z,22.34
2019-01-12T00:35:23.069Z,22.32
2019-01-12T00:37:51.252Z,22.32
2019-01-12T00:40:18.459Z,22.30
2019-01-12T00:42:45.955Z,22.32
2019-01-12T00:45:13.462Z,22.27
2019-01-12T00:47:41.582Z,22.29
2019-01-12T00:50:11.986Z,22.29
2019-01-12T00:52:40.074Z,22.28
2019-01-12T00:55:08.073Z,22.30
2019-01-12T00:57:36.250Z,22.27
2019-01-12T01:00:07.936Z,22.33
2019-01-12T01:02:35.943Z,22.28
2019-01-12T01:05:04.243Z,22.29
2019-01-12T01:07:32.359Z,22.29
2019-01-12T01:10:00.395Z,22.22
2019-01-12T01:12:27.889Z,22.20
2019-01-12T01:14:55.478Z,22.19
2019-01-12T01:17:22.741Z,22.21
2019-01-12T01:19:49.609Z,22.14
2019-01-12T01:22:16.978Z,22.21
2019-01-12T01:24:46.047Z,22.19
2019-01-12T01:27:13.700Z,22.16
2019-01-12T01:29:41.458Z,22.16
2019-01-12T01:32:08.995Z,22.17
2019-01-12T01:34:37.002Z,22.19
2019-01-12T01:37:06.480Z,22.19
2019-01-12T01:39:34.030Z,22.15
2019-01-12T01:42:01.914Z,22.18
2019-01-12T01:44:29.260Z,22.12
2019-01-12T01:46:56.489Z,22.12
2019-01-12T01:49:23.772Z,22.15
2019-01-12T01:51:50.614Z,22.16
2019-01-12T01:54:17.835Z,22.11
2019-01-12T01:56:45.611Z,22.11
2019-01-12T01:59:13.469Z,22.10
2019-01-12T02:01:41.032Z,22.15
2019-01-12T02:04:08.895Z,22.09
2019-01-12T02:06:37.340Z,22.03
2019-01-12T02:09:25.010Z,22.03
2019-01-12T02:12:11.343Z,22.07
2019-01-12T02:14:38.612Z,22.11
2019-01-12T02:17:06.371Z,22.12
2019-01-12T02:19:33.856Z,22.08
2019-01-12T02:22:02.609Z,22.08
2019-01-12T02:24:29.878Z,22.08
2019-01-12T02:26:57.776Z,22.02
2019-01-12T02:29:25.607Z,22.02
2019-01-12T02:31:53.512Z,22.00
2019-01-12T02:34:20.796Z,22.04
2019-01-12T02:36:48.499Z,22.05
2019-01-12T02:39:16.102Z,22.01
2019-01-12T02:41:43.542Z,22.02
2019-01-12T02:44:11.033Z,21.96
2019-01-12T02:46:38.556Z,21.99
2019-01-12T02:49:06.247Z,22.03
2019-01-12T02:51:33.769Z,22.05
2019-01-12T02:54:00.722Z,22.04
2019-01-12T02:56:27.940Z,22.03
2019-01-12T02:58:55.444Z,22.02
2019-01-12T03:01:23.100Z,22.00
2019-01-12T03:03:51.458Z,22.00
2019-01-12T03:06:19.442Z,21.96
2019-01-12T03:08:46.766Z,22.04
2019-01-12T03:11:13.856Z,22.04
2019-01-12T03:13:41.494Z,21.89
2019-01-12T03:16:08.855Z,21.89
2019-01-12T03:18:36.427Z,21.95
2019-01-12T03:21:03.873Z,21.95
2019-01-12T03:23:31.335Z,21.81
2019-01-12T03:25:58.616Z,21.81
2019-01-12T03:28:25.881Z,21.89
2019-01-12T03:30:53.507Z,21.94
2019-01-12T03:33:20.950Z,21.92
2019-01-12T03:35:48.254Z,21.96
2019-01-12T03:38:15.702Z,21.94
2019-01-12T03:40:43.517Z,21.99
2019-01-12T03:43:11.267Z,21.90
2019-01-12T03:45:38.493Z,21.92
2019-01-12T03:48:06.274Z,21.89
2019-01-12T03:50:33.849Z,21.88
2019-01-12T03:53:01.268Z,21.92
2019-01-12T03:55:29.342Z,21.92
2019-01-12T03:57:56.614Z,21.90
2019-01-12T04:00:24.558Z,21.86
2019-01-12T04:02:51.813Z,21.84
2019-01-12T04:05:19.177Z,21.86
2019-01-12T04:07:46.437Z,21.92
2019-01-12T04:10:13.830Z,21.85
2019-01-12T04:12:41.468Z,21.88
2019-01-12T04:15:10.256Z,21.86
2019-01-12T04:20:08.440Z,21.90
2019-01-12T04:22:35.746Z,21.84
2019-01-12T04:25:02.879Z,21.90
2019-01-12T04:27:30.505Z,21.87
2019-01-12T04:29:57.917Z,21.87
2019-01-12T04:32:25.357Z,21.92
2019-01-12T04:34:52.727Z,21.89
2019-01-12T04:37:20.023Z,21.84
2019-01-12T04:39:47.589Z,21.80
2019-01-12T04:42:14.865Z,21.80
2019-01-12T04:44:42.493Z,21.84
2019-01-12T04:47:09.893Z,21.78
2019-01-12T04:49:37.516Z,21.82
2019-01-12T04:52:04.805Z,21.84
2019-01-12T04:54:32.355Z,21.79
2019-01-12T04:57:00.436Z,21.82
2019-01-12T04:59:28.424Z,21.78
2019-01-12T05:01:56.412Z,21.81
2019-01-12T05:04:24.440Z,21.80
2019-01-12T05:06:52.069Z,21.79
2019-01-12T05:09:19.403Z,21.80
2019-01-12T05:11:47.109Z,21.84
2019-01-12T05:14:14.407Z,21.80
2019-01-12T05:16:41.706Z,21.80
2019-01-12T05:19:08.931Z,21.80
2019-01-12T05:21:36.495Z,21.79
2019-01-12T05:24:03.778Z,21.77
2019-01-12T05:26:30.748Z,21.80
2019-01-12T05:28:57.755Z,21.51
2019-01-12T05:31:24.618Z,21.71
2019-01-12T05:33:51.907Z,21.77
2019-01-12T05:36:19.256Z,21.70
2019-01-12T05:38:46.513Z,21.70
2019-01-12T05:41:14.100Z,21.76
2019-01-12T05:43:41.409Z,21.76
2019-01-12T05:46:09.129Z,21.75
2019-01-12T05:48:36.415Z,21.78
2019-01-12T05:51:03.826Z,21.78
2019-01-12T05:53:31.117Z,21.81
2019-01-12T05:55:59.294Z,21.80
2019-01-12T05:58:27.016Z,21.79
2019-01-12T06:00:54.720Z,21.80
2019-01-12T06:03:21.630Z,21.83
2019-01-12T06:05:49.367Z,21.79
2019-01-12T06:08:16.609Z,21.71
2019-01-12T06:10:44.425Z,21.71
2019-01-12T06:13:11.725Z,21.74
2019-01-12T06:15:38.996Z,21.71
2019-01-12T06:18:06.260Z,21.77
2019-01-12T06:20:33.637Z,21.75
2019-01-12T06:23:00.990Z,21.71
2019-01-12T06:25:28.259Z,21.77
2019-01-12T06:27:55.503Z,21.71
2019-01-12T06:30:22.781Z,21.76
2019-01-12T06:32:49.680Z,21.74
2019-01-12T06:35:17.340Z,21.74
2019-01-12T06:37:44.861Z,21.78
2019-01-12T06:40:15.392Z,21.69
2019-01-12T06:42:42.636Z,21.68
2019-01-12T06:45:11.785Z,21.73
2019-01-12T06:47:39.709Z,21.74
2019-01-12T06:50:09.033Z,21.70
2019-01-12T06:52:36.738Z,21.76
2019-01-12T06:55:04.256Z,21.70
2019-01-12T06:57:31.804Z,21.71
2019-01-12T06:59:59.504Z,21.63
2019-01-12T07:02:27.246Z,21.60
2019-01-12T07:04:54.873Z,21.64
2019-01-12T07:07:22.258Z,21.66
2019-01-12T07:09:49.999Z,21.66
2019-01-12T07:12:17.396Z,21.67
2019-01-12T07:14:44.900Z,21.67
2019-01-12T07:17:12.555Z,21.65
2019-01-12T07:19:39.790Z,21.65
2019-01-12T07:22:06.700Z,21.63
2019-01-12T07:24:34.053Z,21.64
2019-01-12T07:27:01.506Z,21.60
2019-01-12T07:29:28.878Z,21.62
2019-01-12T07:31:56.800Z,21.66
2019-01-12T07:34:25.057Z,21.66
2019-01-12T07:36:52.517Z,21.62
2019-01-12T07:39:20.578Z,21.64
2019-01-12T07:41:48.038Z,21.66
2019-01-12T07:44:15.907Z,21.65
2019-01-12T07:46:43.833Z,21.60
2019-01-12T07:49:11.435Z,21.60
2019-01-12T07:51:38.688Z,21.62
2019-01-12T07:54:06.258Z,21.65
2019-01-12T07:56:33.807Z,21.67
2019-01-12T07:59:01.572Z,21.64
2019-01-12T08:01:28.832Z,21.66
2019-01-12T08:03:56.444Z,21.67
2019-01-12T08:06:23.753Z,21.68
2019-01-12T08:08:50.804Z,21.69
2019-01-12T08:11:17.605Z,21.69
2019-01-12T08:13:44.957Z,21.71
2019-01-12T08:16:12.252Z,21.70
2019-01-12T08:18:39.793Z,21.71
2019-01-12T08:21:07.036Z,21.74
2019-01-12T08:23:35.244Z,21.76
2019-01-12T08:26:03.072Z,21.76
2019-01-12T08:28:30.792Z,21.74
2019-01-12T08:30:57.697Z,21.73
2019-01-12T08:33:24.606Z,21.69
2019-01-12T08:35:51.877Z,21.70
2019-01-12T08:38:19.248Z,21.71
2019-01-12T08:40:47.560Z,21.71
2019-01-12T08:43:15.249Z,21.74
2019-01-12T08:45:42.483Z,21.77
2019-01-12T08:48:10.075Z,21.78
2019-01-12T08:50:37.387Z,21.79
2019-01-12T08:53:04.870Z,21.84
2019-01-12T08:55:32.249Z,21.71
2019-01-12T08:58:00.435Z,21.71
2019-01-12T09:00:27.973Z,21.83
2019-01-12T09:02:55.659Z,21.88
2019-01-12T09:05:23.330Z,21.84
2019-01-12T09:07:50.610Z,21.86
2019-01-12T09:10:20.498Z,21.89
2019-01-12T09:12:48.448Z,21.88
2019-01-12T09:15:15.839Z,21.85
2019-01-12T09:17:44.244Z,21.87
2019-01-12T09:20:12.242Z,21.84
2019-01-12T09:22:40.242Z,21.88
2019-01-12T09:25:08.708Z,21.93
2019-01-12T09:27:35.610Z,21.90
2019-01-12T09:30:05.248Z,21.87
2019-01-12T09:32:32.491Z,21.88
2019-01-12T09:34:59.775Z,21.90
2019-01-12T09:37:26.695Z,21.90
2019-01-12T09:39:53.596Z,21.92
2019-01-12T09:42:21.030Z,21.93
2019-01-12T09:44:48.523Z,21.89
2019-01-12T09:47:15.846Z,21.91
2019-01-12T09:49:43.242Z,21.86
2019-01-12T09:52:11.491Z,21.91
2019-01-12T09:54:38.781Z,21.92
2019-01-12T09:57:05.677Z,21.93
2019-01-12T09:59:32.980Z,21.93
2019-01-12T10:02:00.342Z,21.92
2019-01-12T10:04:28.418Z,21.95
2019-01-12T10:06:56.828Z,21.99
2019-01-12T10:09:24.269Z,22.01
2019-01-12T10:11:51.785Z,22.06
2019-01-12T10:14:19.430Z,22.04
2019-01-12T10:16:46.942Z,22.05
2019-01-12T10:19:16.318Z,22.09
2019-01-12T10:21:45.807Z,22.19
2019-01-12T10:24:14.093Z,22.19
2019-01-12T10:26:41.840Z,22.18
2019-01-12T10:29:11.592Z,22.18
2019-01-12T10:31:41.057Z,22.32
2019-01-12T10:34:09.783Z,22.42
2019-01-12T10:36:40.794Z,22.42
2019-01-12T10:41:39.655Z,22.66
2019-01-12T10:46:40.964Z,22.57
2019-01-12T10:49:08.757Z,22.53
2019-01-12T10:51:36.675Z,22.53
2019-01-12T10:54:05.040Z,22.47
2019-01-12T10:56:33.689Z,22.57
2019-01-12T10:59:01.522Z,22.57
2019-01-12T11:01:29.799Z,22.83
2019-01-12T11:03:57.688Z,22.60
2019-01-12T11:06:27.598Z,22.84
2019-01-12T11:08:55.836Z,22.80
2019-01-12T11:11:24.590Z,22.94
2019-01-12T11:13:52.339Z,22.86
2019-01-12T11:18:48.684Z,22.93
2019-01-12T11:22:09.860Z,22.88
2019-01-12T11:24:37.241Z,22.87
2019-01-12T11:27:04.903Z,22.87
2019-01-12T11:29:33.548Z,22.89
2019-01-12T11:32:00.872Z,22.89
2019-01-12T11:34:28.456Z,22.88
2019-01-12T11:36:55.764Z,22.88
2019-01-12T11:39:23.240Z,22.74
2019-01-12T11:41:50.755Z,22.93
2019-01-12T11:44:19.786Z,22.99
2019-01-12T11:46:47.231Z,22.97
2019-01-12T11:49:15.023Z,22.95
2019-01-12T11:51:42.989Z,22.89
2019-01-12T11:54:10.800Z,22.92
2019-01-12T11:56:38.783Z,23.04
2019-01-12T11:59:06.239Z,22.97
2019-01-12T12:01:33.854Z,23.01
2019-01-12T12:04:01.926Z,22.94
2019-01-12T12:06:29.484Z,22.94
2019-01-12T12:08:58.036Z,23.06
2019-01-12T12:11:25.692Z,23.06
2019-01-12T12:13:52.734Z,23.17
2019-01-12T12:16:20.430Z,23.05
2019-01-12T12:18:48.752Z,23.02
2019-01-12T12:21:15.813Z,23.02
2019-01-12T12:23:43.754Z,23.06
2019-01-12T12:26:12.428Z,23.11
2019-01-12T12:28:39.753Z,23.18
2019-01-12T12:31:06.974Z,23.16
2019-01-12T12:33:34.615Z,23.05
2019-01-12T12:36:02.430Z,23.04
2019-01-12T12:38:29.828Z,22.98
2019-01-12T12:40:57.102Z,22.95
2019-01-12T12:43:24.441Z,22.98
2019-01-12T12:45:51.717Z,22.96
2019-01-12T12:48:19.109Z,22.95
2019-01-12T12:50:46.414Z,22.90
2019-01-12T12:53:13.721Z,23.13
2019-01-12T12:55:41.034Z,23.20
2019-01-12T12:58:08.526Z,23.08
2019-01-12T13:00:35.843Z,23.18
2019-01-12T13:03:03.747Z,23.35
2019-01-12T13:05:31.240Z,23.35
2019-01-12T13:07:59.064Z,23.29
2019-01-12T13:10:29.246Z,23.29
2019-01-12T13:12:56.942Z,23.29
2019-01-12T13:15:24.371Z,23.14
2019-01-12T13:17:51.797Z,23.21
2019-01-12T13:20:20.951Z,23.12
2019-01-12T13:22:49.467Z,23.10
2019-01-12T13:25:17.420Z,23.14
2019-01-12T13:27:44.916Z,23.18
2019-01-12T13:30:19.013Z,23.20
2019-01-12T13:32:47.393Z,23.37
2019-01-12T13:35:14.704Z,23.35
2019-01-12T13:37:41.598Z,23.31
2019-01-12T13:40:10.859Z,23.35
2019-01-12T13:42:39.021Z,23.33
2019-01-12T13:45:08.512Z,23.33
2019-01-12T13:47:36.024Z,23.28
2019-01-12T13:52:43.686Z,23.30
2019-01-12T13:55:12.396Z,23.22
2019-01-12T13:57:47.340Z,23.24
2019-01-12T14:00:36.465Z,23.18
2019-01-12T14:03:05.966Z,23.18
2019-01-12T14:05:33.492Z,23.16
2019-01-12T14:08:00.830Z,23.20
2019-01-12T14:10:28.240Z,23.16
2019-01-12T14:12:55.786Z,23.16
2019-01-12T14:15:23.476Z,23.14
2019-01-12T14:17:51.481Z,23.09
2019-01-12T14:20:25.830Z,23.18
2019-01-12T14:22:53.775Z,23.17
2019-01-12T14:25:20.921Z,23.17
2019-01-12T14:27:54.339Z,23.27
2019-01-12T14:30:53.108Z,23.26
2019-01-12T14:33:20.999Z,23.20
2019-01-12T14:35:48.877Z,23.24
2019-01-12T14:38:16.742Z,23.31
2019-01-12T14:40:44.239Z,23.31
2019-01-12T14:43:12.112Z,23.30
2019-01-12T14:45:39.776Z,23.33
2019-01-12T14:48:07.405Z,23.32
2019-01-12T14:50:34.886Z,23.30
2019-01-12T14:53:02.761Z,23.32
2019-01-12T14:55:30.244Z,23.32
2019-01-12T14:58:01.970Z,23.37
2019-01-12T15:00:28.458Z,23.27
2019-01-12T15:02:55.861Z,23.34
2019-01-12T15:05:26.851Z,23.24
2019-01-12T15:07:54.436Z,23.24
2019-01-12T15:10:21.738Z,23.21
2019-01-12T15:12:49.453Z,23.19
2019-01-12T15:17:13.978Z,23.25
2019-01-12T15:19:41.939Z,23.19
2019-01-12T15:22:09.725Z,23.15
2019-01-12T15:24:37.242Z,23.17
2019-01-12T15:27:04.874Z,23.12
2019-01-12T15:29:32.397Z,23.00
2019-01-12T15:32:00.910Z,23.00
2019-01-12T15:34:28.449Z,23.04
2019-01-12T15:36:55.790Z,23.08
2019-01-12T15:39:23.454Z,23.06
2019-01-12T15:41:50.706Z,23.06
2019-01-12T15:44:17.875Z,23.07
2019-01-12T15:46:45.440Z,23.02
2019-01-12T15:49:12.686Z,23.02
2019-01-12T15:51:39.607Z,23.08
2019-01-12T15:54:07.026Z,23.09
2019-01-12T15:56:34.723Z,23.05
2019-01-12T15:59:01.605Z,23.04
2019-01-12T16:01:28.883Z,23.02
2019-01-12T16:03:56.242Z,22.90
2019-01-12T16:06:23.804Z,22.90
2019-01-12T16:08:51.888Z,22.98
2019-01-12T16:11:20.244Z,22.92
2019-01-12T16:13:47.762Z,22.87
2019-01-12T16:16:14.708Z,22.93
2019-01-12T16:18:41.869Z,22.93
2019-01-12T16:21:09.463Z,22.98
2019-01-12T16:23:37.248Z,22.98
2019-01-12T16:26:04.563Z,23.00
2019-01-12T16:28:31.979Z,23.00
2019-01-12T16:30:59.608Z,22.96
2019-01-12T16:33:26.863Z,22.98
2019-01-12T16:35:54.510Z,22.87
2019-01-12T16:38:22.247Z,22.87
2019-01-12T16:40:50.448Z,22.94
2019-01-12T16:43:17.885Z,22.90
2019-01-12T16:45:45.247Z,22.86
2019-01-12T16:48:13.012Z,22.86
2019-01-12T16:50:40.778Z,22.87
2019-01-12T16:53:07.703Z,22.88
2019-01-12T16:55:34.596Z,22.81
2019-01-12T16:58:02.538Z,22.85
2019-01-12T17:00:30.495Z,22.77
2019-01-12T17:02:59.016Z,22.84
2019-01-12T17:05:26.392Z,22.87
2019-01-12T17:07:53.740Z,22.95
2019-01-12T17:11:28.742Z,22.84
2019-01-12T17:13:55.984Z,22.86
2019-01-12T17:16:25.333Z,22.92
2019-01-12T17:18:52.781Z,22.79
2019-01-12T17:21:20.107Z,22.77
2019-01-12T17:23:47.860Z,22.78
2019-01-12T17:26:15.357Z,22.74
2019-01-12T17:28:43.436Z,22.74
2019-01-12T17:31:10.786Z,22.76
2019-01-12T17:33:38.397Z,22.81
2019-01-12T17:36:06.251Z,22.80
2019-01-12T17:38:34.454Z,22.85
2019-01-12T17:41:02.874Z,22.73
2019-01-12T17:43:30.859Z,22.66
2019-01-12T17:46:19.818Z,22.90
2019-01-12T17:49:27.855Z,22.84
2019-01-12T17:51:58.448Z,22.72
2019-01-12T17:54:28.330Z,22.72
2019-01-12T17:56:56.796Z,22.75
2019-01-12T17:59:24.682Z,22.75
2019-01-12T18:01:53.958Z,22.78
2019-01-12T18:04:21.781Z,22.84
2019-01-12T18:06:49.959Z,22.84
2019-01-12T18:09:18.686Z,22.81
2019-01-12T18:11:47.021Z,22.81
2019-01-12T18:14:15.679Z,22.80
2019-01-12T18:16:43.822Z,22.80
2019-01-12T18:19:11.767Z,22.80
2019-01-12T18:21:39.807Z,22.78
2019-01-12T18:24:07.829Z,22.75
2019-01-12T18:26:35.677Z,22.72
2019-01-12T18:29:03.848Z,22.75
2019-01-12T18:31:31.681Z,22.72
2019-01-12T18:33:59.359Z,22.68
2019-01-12T18:36:28.597Z,22.65
2019-01-12T18:38:56.831Z,22.71
2019-01-12T18:41:24.789Z,22.71
2019-01-12T18:43:53.763Z,22.75
2019-01-12T18:46:21.804Z,22.70
2019-01-12T18:48:49.764Z,22.70
2019-01-12T18:51:17.836Z,22.68
2019-01-12T18:53:45.721Z,22.65
2019-01-12T18:56:13.749Z,22.64
2019-01-12T18:58:41.762Z,22.68
2019-01-12T19:01:09.771Z,22.67
2019-01-12T19:03:37.676Z,22.67
2019-01-12T19:06:06.072Z,22.65
2019-01-12T19:08:34.710Z,22.65
2019-01-12T19:11:02.364Z,22.61
2019-01-12T19:13:30.703Z,22.63
2019-01-12T19:15:58.567Z,22.65
2019-01-12T19:18:26.806Z,22.67
2019-01-12T19:20:54.764Z,22.67
2019-01-12T19:23:22.740Z,22.62
2019-01-12T19:25:51.276Z,22.63
2019-01-12T19:28:19.664Z,22.61
2019-01-12T19:30:47.366Z,22.62
2019-01-12T19:33:16.733Z,22.58
2019-01-12T19:35:44.751Z,22.49
2019-01-12T19:38:12.747Z,22.60
2019-01-12T19:40:41.370Z,22.65
2019-01-12T19:43:09.845Z,22.66
2019-01-12T19:45:37.807Z,22.65
2019-01-12T19:48:05.336Z,22.65
2019-01-12T19:50:33.951Z,22.70
2019-01-12T19:53:01.717Z,22.63
2019-01-12T19:55:29.604Z,22.63
2019-01-12T19:57:58.685Z,22.69
2019-01-12T20:00:32.685Z,22.66
2019-01-12T20:03:00.765Z,22.70
2019-01-12T20:05:28.700Z,22.67
2019-01-12T20:07:57.062Z,22.64
2019-01-12T20:10:26.303Z,22.72
2019-01-12T20:12:54.986Z,22.72
2019-01-12T20:15:25.072Z,22.62
2019-01-12T20:17:53.776Z,22.78
2019-01-12T20:20:21.677Z,22.78
2019-01-12T20:22:50.424Z,22.73
2019-01-12T20:25:27.945Z,22.76
2019-01-12T20:27:57.349Z,22.62
2019-01-12T20:30:56.095Z,22.62
2019-01-12T20:33:46.391Z,22.76
2019-01-12T20:37:36.110Z,22.76
2019-01-12T20:40:26.814Z,22.59
2019-01-12T20:43:40.840Z,22.41
2019-01-12T20:46:42.765Z,22.41
2019-01-12T20:49:14.842Z,22.72
2019-01-12T20:52:05.332Z,22.81
2019-01-12T20:57:07.245Z,22.84
2019-01-12T21:00:31.027Z,22.79
2019-01-12T21:03:40.949Z,22.79
2019-01-12T21:06:37.075Z,22.76
2019-01-12T21:10:07.934Z,22.64
2019-01-12T21:13:40.558Z,22.62
2019-01-12T21:16:15.818Z,22.62
2019-01-12T21:18:43.689Z,22.63
2019-01-12T21:21:11.683Z,22.48
2019-01-12T21:23:41.548Z,22.66
2019-01-12T21:26:10.753Z,22.66
2019-01-12T21:28:38.805Z,22.67
2019-01-12T21:31:06.789Z,22.70
2019-01-12T21:35:23.241Z,22.66
2019-01-12T21:37:52.048Z,22.60
2019-01-12T21:40:19.694Z,22.57
2019-01-12T21:42:46.700Z,22.63
2019-01-12T21:45:13.611Z,22.63
2019-01-12T21:47:40.894Z,22.61
2019-01-12T21:50:11.744Z,22.70
2019-01-12T21:52:40.025Z,22.70
2019-01-12T21:55:09.742Z,22.58
2019-01-12T21:57:37.578Z,22.58
2019-01-12T22:00:11.364Z,22.72
2019-01-12T22:02:40.034Z,22.72
2019-01-12T22:05:09.765Z,22.68
2019-01-12T22:07:37.761Z,22.68
2019-01-12T22:10:06.356Z,22.57
2019-01-12T22:12:35.051Z,22.57
2019-01-12T22:15:03.829Z,22.67
2019-01-12T22:17:32.144Z,22.67
2019-01-12T22:20:01.343Z,22.71
2019-01-12T22:22:29.923Z,22.69
2019-01-12T22:24:58.639Z,22.60
2019-01-12T22:27:28.853Z,22.60
2019-01-12T22:29:57.592Z,22.39
2019-01-12T22:35:15.735Z,22.67
2019-01-12T22:37:42.707Z,22.62
2019-01-12T22:40:15.425Z,22.67
2019-01-12T22:42:43.399Z,22.70
2019-01-12T22:45:11.529Z,22.59
2019-01-12T22:47:39.074Z,22.63
2019-01-12T22:50:09.967Z,22.61
2019-01-12T22:52:38.639Z,22.97
2019-01-12T22:55:08.794Z,22.97
2019-01-12T22:57:37.846Z,23.03
2019-01-12T23:00:31.753Z,23.02
2019-01-12T23:03:00.015Z,23.02
2019-01-12T23:05:28.794Z,22.88
2019-01-12T23:07:56.795Z,22.87
2019-01-12T23:10:24.494Z,22.87
2019-01-12T23:12:52.731Z,22.92
2019-01-12T23:15:21.715Z,22.95
2019-01-12T23:17:49.807Z,22.92
2019-01-12T23:20:17.508Z,22.92
2019-01-12T23:22:46.046Z,22.92
2019-01-12T23:25:14.714Z,22.92
2019-01-12T23:27:43.591Z,22.80
2019-01-12T23:30:12.104Z,22.80
2019-01-12T23:32:40.696Z,22.87
2019-01-12T23:35:09.050Z,22.93
2019-01-12T23:37:37.723Z,22.84
2019-01-12T23:40:05.601Z,22.84
2019-01-12T23:42:34.348Z,22.91
2019-01-12T23:46:26.903Z,22.93
2019-01-12T23:48:56.011Z,22.88
2019-01-12T23:51:23.513Z,22.88
2019-01-12T23:53:50.972Z,22.87
2019-01-12T23:56:18.607Z,22.82
2019-01-12T23:58:46.242Z,22.85
